Time;durP1;ratioP1;P1;durP2;ratioP2;P2;SDS_P1;SDS_P2;PMS_P1;PMS_P2;Temp;Humidity;BMP_temperature;BMP_pressure;BME280_temperature;BME280_humidity;BME280_pressure;Samples;Min_cycle;Max_cycle;Signal;HPM_P1;HPM_P2
2022/01/26 00:06:21;;;;;;;19.40;10.25;;;;;;;18.53;41.34;103285.78;4962833;28;20042;-74
2022/01/26 00:08:48;;;;;;;18.27;9.82;;;;;;;18.54;41.31;103289.25;4975202;28;20046;-74
2022/01/26 00:11:14;;;;;;;18.75;9.65;;;;;;;18.49;41.43;103278.19;4966807;28;20062;-74
2022/01/26 00:13:39;;;;;;;20.20;9.48;;;;;;;18.41;41.64;103273.47;4976426;28;20037;-74
2022/01/26 00:16:09;;;;;;;20.33;10.13;;;;;;;18.44;41.43;103265.31;4976054;28;20100;-74
2022/01/26 00:18:37;;;;;;;20.90;9.55;;;;;;;18.44;41.46;103257.41;4978271;28;20045;-74
2022/01/26 00:21:13;;;;;;;19.77;9.80;;;;;;;18.38;41.50;103245.53;4963235;28;20046;-74
2022/01/26 00:26:29;;;;;;;19.35;9.73;;;;;;;18.39;41.66;103244.56;4979431;28;20523;-74
2022/01/26 00:39:36;;;;;;;20.05;9.43;;;;;;;18.22;41.55;103218.56;4962765;28;20057;-74
2022/01/26 00:42:01;;;;;;;20.20;10.05;;;;;;;18.27;41.57;103226.97;4959848;28;20050;-74
2022/01/26 00:44:35;;;;;;;18.80;9.52;;;;;;;18.28;41.56;103226.03;4964034;28;20041;-74
2022/01/26 00:47:00;;;;;;;16.27;8.63;;;;;;;18.23;41.66;103228.16;4962017;28;20133;-74
2022/01/26 00:49:26;;;;;;;19.65;9.65;;;;;;;18.19;41.72;103231.97;4978237;28;20049;-74
2022/01/26 00:51:53;;;;;;;23.88;10.32;;;;;;;18.21;41.76;103219.53;4975797;28;20098;-74
2022/01/26 00:54:19;;;;;;;19.23;9.73;;;;;;;18.20;41.48;103220.47;4978140;28;20042;-74
2022/01/26 00:56:44;;;;;;;19.23;9.38;;;;;;;18.17;41.35;103214.59;4976278;28;20034;-74
2022/01/26 00:59:11;;;;;;;20.92;9.80;;;;;;;18.17;41.47;103228.63;4980274;28;20112;-74
2022/01/26 01:01:37;;;;;;;17.42;9.27;;;;;;;18.12;41.63;103234.19;4973434;28;20039;-74
2022/01/26 01:04:03;;;;;;;19.17;8.82;;;;;;;18.15;41.58;103243.72;4979542;28;20072;-74
2022/01/26 01:06:35;;;;;;;20.45;10.27;;;;;;;18.11;41.71;103248.34;4961905;28;20035;-74
2022/01/26 01:09:01;;;;;;;18.73;9.18;;;;;;;18.07;41.68;103241.59;4973277;28;20474;-74
2022/01/26 01:11:27;;;;;;;20.10;9.18;;;;;;;18.09;41.74;103236.22;4978275;28;20124;-74
2022/01/26 01:13:55;;;;;;;23.30;9.82;;;;;;;18.06;41.65;103231.19;4960333;28;20285;-74
2022/01/26 01:16:22;;;;;;;21.83;10.23;;;;;;;18.07;41.68;103228.44;4973075;28;20121;-74
2022/01/26 01:18:58;;;;;;;19.73;9.25;;;;;;;18.06;41.77;103220.63;4958480;28;20042;-74
2022/01/26 01:24:35;;;;;;;21.70;10.13;;;;;;;18.01;41.72;103209.56;4964887;28;20190;-74
2022/01/26 01:30:22;;;;;;;15.98;8.15;;;;;;;17.97;41.63;103213.41;4938008;28;20141;-74
2022/01/26 01:33:05;;;;;;;20.25;9.93;;;;;;;17.92;41.70;103200.53;4979316;28;20085;-74
2022/01/26 01:35:33;;;;;;;19.13;9.15;;;;;;;17.91;41.75;103193.56;4976722;28;20697;-74
2022/01/26 01:38:07;;;;;;;21.65;9.88;;;;;;;17.87;41.59;103196.53;4958556;28;20066;-74
2022/01/26 01:40:33;;;;;;;18.88;9.70;;;;;;;17.89;41.91;103198.09;4957757;28;20034;-74
2022/01/26 01:42:58;;;;;;;21.88;10.50;;;;;;;17.88;41.67;103190.31;4973454;28;20038;-74
2022/01/26 01:45:33;;;;;;;19.50;8.85;;;;;;;17.87;41.81;103186.84;4975043;28;20052;-74
2022/01/26 01:47:59;;;;;;;21.95;9.65;;;;;;;17.86;41.78;103189.59;4974388;28;20868;-74
2022/01/26 01:50:24;;;;;;;19.38;9.43;;;;;;;17.83;41.84;103187.16;4974189;28;20156;-74
2022/01/26 01:52:50;;;;;;;21.23;11.38;;;;;;;17.79;41.75;103197.09;4979959;28;20042;-74
2022/01/26 01:55:16;;;;;;;18.63;9.35;;;;;;;17.77;41.73;103197.22;4972600;28;20037;-74
2022/01/26 01:57:42;;;;;;;19.63;9.40;;;;;;;17.80;41.75;103193.50;4964450;28;20776;-74
2022/01/26 02:00:08;;;;;;;19.30;9.52;;;;;;;17.77;41.78;103191.06;4962441;28;20039;-74
2022/01/26 02:02:34;;;;;;;19.77;9.68;;;;;;;17.76;42.05;103192.84;4978811;28;20400;-74
2022/01/26 02:04:59;;;;;;;22.02;10.38;;;;;;;17.75;41.96;103180.63;4953533;28;20046;-75
2022/01/26 02:07:25;;;;;;;22.02;10.30;;;;;;;17.74;41.86;103176.31;4975088;28;20483;-74
2022/01/26 02:09:50;;;;;;;25.42;10.00;;;;;;;17.74;41.82;103183.38;4958080;28;20491;-74
2022/01/26 02:12:20;;;;;;;21.42;9.77;;;;;;;17.71;41.87;103176.53;4971832;28;20061;-74
2022/01/26 02:14:51;;;;;;;22.50;10.65;;;;;;;17.67;41.86;103164.50;4978962;28;20499;-74
2022/01/26 02:18:02;;;;;;;23.08;10.10;;;;;;;17.69;41.85;103165.28;4974094;28;20415;-75
2022/01/26 02:20:47;;;;;;;19.90;9.43;;;;;;;17.67;41.89;103158.41;4973485;28;20451;-74
2022/01/26 03:05:14;;;;;;;18.35;9.45;;;;;;;17.43;42.03;103146.00;4971957;28;20039;-74
2022/01/26 03:10:18;;;;;;;20.73;10.05;;;;;;;17.41;42.16;103150.53;4945837;28;20053;-74
2022/01/26 03:12:56;;;;;;;22.40;10.23;;;;;;;17.40;42.04;103148.00;4975445;28;20173;-74
2022/01/26 03:15:36;;;;;;;20.38;9.70;;;;;;;17.38;42.05;103149.91;4962444;28;20580;-74
2022/01/26 03:18:22;;;;;;;21.40;10.10;;;;;;;17.36;42.15;103152.66;4976663;28;20042;-74
2022/01/26 03:20:48;;;;;;;25.30;10.27;;;;;;;17.36;41.98;103159.69;4969775;28;20039;-74
2022/01/26 03:28:58;;;;;;;21.80;10.75;;;;;;;17.33;42.22;103158.13;4979691;28;20038;-74
2022/01/26 03:32:08;;;;;;;23.73;9.65;;;;;;;17.28;42.00;103146.25;4977455;28;20722;-74
2022/01/26 03:34:24;;;;;;;22.58;9.88;;;;;;;17.28;42.20;103147.09;4976220;28;20602;-74
2022/01/26 03:37:00;;;;;;;22.25;9.82;;;;;;;17.27;42.21;103147.19;4976198;28;20093;-74
2022/01/26 03:39:27;;;;;;;26.20;10.27;;;;;;;17.19;42.05;103132.75;4962445;28;20046;-74
2022/01/26 03:42:04;;;;;;;20.02;9.57;;;;;;;17.26;42.10;103154.25;4978167;28;20046;-74
2022/01/26 03:44:30;;;;;;;24.67;10.40;;;;;;;17.22;42.26;103152.75;4977773;28;20065;-74
2022/01/26 03:46:56;;;;;;;25.38;11.32;;;;;;;17.22;42.18;103153.59;4956866;28;20472;-74
2022/01/26 03:49:21;;;;;;;22.20;10.13;;;;;;;17.23;42.11;103164.97;4976899;28;20505;-74
2022/01/26 03:51:47;;;;;;;22.90;10.15;;;;;;;17.19;42.12;103158.25;4976473;28;20164;-74
2022/01/26 03:54:13;;;;;;;24.42;11.27;;;;;;;17.21;42.22;103162.44;4960350;28;20041;-74
2022/01/26 03:56:39;;;;;;;24.38;10.68;;;;;;;17.20;42.01;103158.13;4976076;28;20088;-74
2022/01/26 03:59:05;;;;;;;23.52;10.90;;;;;;;17.18;42.23;103159.19;4964199;28;20035;-73
2022/01/26 04:01:30;;;;;;;19.70;9.55;;;;;;;17.14;42.14;103157.72;4959871;28;20484;-74
2022/01/26 04:03:56;;;;;;;24.85;11.73;;;;;;;17.14;42.23;103155.94;4975343;28;20537;-74
2022/01/26 04:06:23;;;;;;;19.70;9.63;;;;;;;17.04;42.28;103144.34;4960196;28;20043;-74
2022/01/26 04:08:48;;;;;;;27.23;10.90;;;;;;;17.14;42.22;103158.56;4978404;28;20042;-74
2022/01/26 04:11:34;;;;;;;22.23;11.05;;;;;;;17.15;42.09;103151.50;4978502;28;20062;-74
2022/01/26 04:14:04;;;;;;;23.40;10.85;;;;;;;17.11;42.28;103142.13;4977519;28;20062;-74
2022/01/26 04:16:30;;;;;;;19.90;10.38;;;;;;;17.12;42.41;103138.56;4962639;28;20034;-74
2022/01/26 04:18:57;;;;;;;25.13;11.02;;;;;;;17.10;42.25;103136.03;4952878;28;20270;-74
2022/01/26 04:21:34;;;;;;;25.30;11.02;;;;;;;17.08;42.08;103129.19;4958263;28;20093;-74
2022/01/26 04:27:05;;;;;;;23.55;10.75;;;;;;;17.09;42.29;103109.81;4971791;28;21269;-74
2022/01/26 04:29:33;;;;;;;23.90;10.52;;;;;;;17.10;42.21;103114.13;4977157;28;20383;-74
2022/01/26 04:32:01;;;;;;;27.88;11.70;;;;;;;17.09;42.18;103110.66;4977196;28;20046;-74
2022/01/26 04:34:27;;;;;;;21.92;10.02;;;;;;;17.07;42.15;103096.75;4985624;28;20475;-74
2022/01/26 04:39:31;;;;;;;22.05;10.40;;;;;;;17.03;42.56;103094.44;4977604;28;20065;-73
2022/01/26 04:42:04;;;;;;;29.27;11.90;;;;;;;16.97;42.34;103071.19;4977148;28;20405;-73
2022/01/26 04:44:55;;;;;;;20.65;9.45;;;;;;;17.04;42.25;103072.41;4976902;28;20085;-74
2022/01/26 04:47:17;;;;;;;21.30;10.23;;;;;;;17.00;42.36;103070.97;4975825;28;20065;-74
2022/01/26 04:49:43;;;;;;;20.33;9.52;;;;;;;17.04;42.30;103072.41;4949498;28;20101;-73
2022/01/26 04:52:08;;;;;;;23.38;10.63;;;;;;;17.02;42.39;103066.41;4959109;28;20054;-73
2022/01/26 04:54:34;;;;;;;21.02;10.07;;;;;;;16.98;42.21;103042.13;4961852;28;20042;-73
2022/01/26 04:57:00;;;;;;;23.35;10.02;;;;;;;16.99;42.29;103053.47;4971052;28;20046;-74
2022/01/26 04:59:25;;;;;;;23.42;11.18;;;;;;;17.00;41.89;103048.09;4963023;28;20042;-74
2022/01/26 05:01:51;;;;;;;20.30;9.15;;;;;;;17.02;42.34;103066.41;4956629;28;20121;-74
2022/01/26 05:04:16;;;;;;;22.02;9.63;;;;;;;17.03;42.30;103055.78;4977585;28;20050;-73
2022/01/26 05:06:42;;;;;;;24.77;10.00;;;;;;;17.03;42.30;103062.84;4976845;28;20097;-73
2022/01/26 05:09:07;;;;;;;22.60;10.75;;;;;;;17.02;42.34;103058.53;4972614;28;20046;-73
2022/01/26 05:11:42;;;;;;;24.20;10.32;;;;;;;17.03;42.44;103062.84;4976986;28;20294;-74
2022/01/26 05:14:08;;;;;;;22.90;10.45;;;;;;;17.01;42.25;103060.31;4977863;28;20038;-74
2022/01/26 05:16:34;;;;;;;20.98;9.98;;;;;;;17.02;42.43;103063.78;4977134;28;20587;-74
2022/01/26 05:19:01;;;;;;;24.02;10.40;;;;;;;17.01;42.50;103083.16;4975509;28;20378;-74
2022/01/26 05:21:28;;;;;;;22.08;9.63;;;;;;;16.98;42.35;103089.50;4959690;28;20436;-74
2022/01/26 05:23:53;;;;;;;24.73;11.02;;;;;;;17.01;42.45;103084.00;4977539;28;20050;-74
2022/01/26 05:26:20;;;;;;;20.70;10.05;;;;;;;16.93;42.47;103065.28;4976889;28;20467;-74
2022/01/26 05:28:45;;;;;;;22.73;10.70;;;;;;;17.01;42.42;103080.53;4964834;28;20050;-74
2022/01/26 05:31:11;;;;;;;24.15;10.35;;;;;;;16.99;42.65;103072.75;4977466;28;20038;-74
2022/01/26 05:33:37;;;;;;;20.88;9.48;;;;;;;17.02;42.66;103062.00;4977765;28;20033;-74
2022/01/26 05:36:03;;;;;;;21.25;9.30;;;;;;;17.10;42.53;103066.75;4972123;28;20113;-74
2022/01/26 05:38:28;;;;;;;22.67;9.70;;;;;;;17.17;42.36;103050.41;4974671;28;20034;-74
2022/01/26 05:40:56;;;;;;;21.58;9.75;;;;;;;17.37;42.22;103054.25;4974848;28;20548;-74
2022/01/26 05:43:22;;;;;;;21.55;9.88;;;;;;;17.52;41.97;103049.69;4960941;28;20403;-74
2022/01/26 05:45:52;;;;;;;22.95;9.63;;;;;;;17.65;41.69;103036.47;4976621;28;20048;-74
2022/01/26 05:48:17;;;;;;;25.88;10.15;;;;;;;17.81;41.95;103039.69;4973252;28;20124;-74
2022/01/26 05:50:50;;;;;;;21.08;8.95;;;;;;;17.89;41.80;103041.75;4975977;28;20493;-74
2022/01/26 05:53:17;;;;;;;21.73;9.50;;;;;;;17.92;41.71;103028.34;4974998;28;20049;-74
2022/01/26 05:55:43;;;;;;;19.50;8.85;;;;;;;18.00;41.75;103026.81;4960724;28;20039;-74
2022/01/26 05:58:08;;;;;;;19.30;9.38;;;;;;;18.00;41.83;103024.19;4972791;28;20061;-74
2022/01/26 06:00:34;;;;;;;23.15;9.90;;;;;;;18.02;41.80;103019.66;4975397;28;20160;-74
2022/01/26 06:02:59;;;;;;;18.83;8.95;;;;;;;18.04;41.89;103032.72;4963033;28;20062;-74
2022/01/26 06:05:25;;;;;;;21.90;9.82;;;;;;;18.01;41.89;103035.56;4977040;28;20547;-74
2022/01/26 06:07:51;;;;;;;17.92;9.40;;;;;;;18.02;41.96;103034.63;4974633;28;20046;-74
2022/01/26 06:10:16;;;;;;;19.95;9.52;;;;;;;18.00;41.96;103032.09;4956462;28;20042;-74
2022/01/26 06:12:42;;;;;;;22.20;9.82;;;;;;;18.01;41.79;103036.41;4956855;28;20066;-74
2022/01/26 06:15:08;;;;;;;22.33;9.27;;;;;;;18.05;41.72;103029.94;4958482;28;20480;-74
2022/01/26 06:17:33;;;;;;;17.92;8.50;;;;;;;18.13;41.74;103029.38;4959381;28;20431;-74
2022/01/26 06:19:59;;;;;;;19.15;9.45;;;;;;;18.18;41.62;103027.25;4974376;28;20038;-74
2022/01/26 06:22:25;;;;;;;18.58;8.10;;;;;;;18.21;41.61;103024.38;4976460;28;20046;-74
2022/01/26 06:24:52;;;;;;;22.27;10.15;;;;;;;18.29;41.56;103037.81;4970742;28;20124;-74
2022/01/26 06:27:17;;;;;;;20.70;9.82;;;;;;;18.35;41.64;103052.34;4956547;28;20559;-74
2022/01/26 06:29:43;;;;;;;23.90;9.90;;;;;;;18.39;41.48;103059.91;4976140;28;20471;-74
2022/01/26 06:32:10;;;;;;;21.58;8.75;;;;;;;18.39;41.35;103056.44;4976412;28;20054;-73
2022/01/26 06:34:39;;;;;;;19.25;8.80;;;;;;;18.39;41.49;103062.53;4972354;28;20051;-74
2022/01/26 06:37:05;;;;;;;18.63;8.65;;;;;;;18.41;41.56;103067.69;4959960;28;20456;-74
2022/01/26 06:39:31;;;;;;;19.05;8.27;;;;;;;18.37;41.65;103060.97;4975880;28;20542;-74
2022/01/26 06:41:56;;;;;;;21.73;9.70;;;;;;;18.37;41.52;103059.19;4970737;28;20039;-74
2022/01/26 06:44:30;;;;;;;19.65;9.05;;;;;;;18.36;41.50;103051.41;4974916;28;20042;-74
2022/01/26 06:47:15;;;;;;;21.98;9.57;;;;;;;18.33;41.67;103035.81;4970645;28;20042;-74
2022/01/26 06:49:40;;;;;;;23.30;10.13;;;;;;;18.31;41.65;103032.41;4961209;28;20066;-74
2022/01/26 06:52:06;;;;;;;18.77;8.82;;;;;;;18.31;41.67;103051.75;4974844;28;20038;-74
2022/01/26 06:54:32;;;;;;;17.73;7.88;;;;;;;18.31;41.81;103056.16;4973437;28;20416;-74
2022/01/26 06:56:57;;;;;;;16.75;8.20;;;;;;;18.28;41.75;103057.22;4956968;28;20093;-74
2022/01/26 06:59:24;;;;;;;23.00;9.25;;;;;;;18.26;41.67;103061.78;4958022;28;20042;-74
2022/01/26 07:01:50;;;;;;;18.33;8.50;;;;;;;18.24;41.98;103060.22;4974834;28;20067;-74
2022/01/26 07:04:16;;;;;;;18.13;8.93;;;;;;;18.24;41.66;103052.31;4972665;28;20042;-74
2022/01/26 07:06:41;;;;;;;26.25;9.45;;;;;;;18.24;41.58;103044.41;4978082;28;20054;-74
2022/01/26 07:09:07;;;;;;;18.80;8.73;;;;;;;18.27;41.62;103037.09;4972086;28;20030;-74
2022/01/26 07:11:32;;;;;;;22.55;8.57;;;;;;;18.31;41.57;103045.59;4974679;28;20054;-74
2022/01/26 07:14:00;;;;;;;18.90;8.07;;;;;;;18.30;41.31;103050.03;4964240;28;20046;-74
2022/01/26 07:21:54;;;;;;;18.92;8.65;;;;;;;18.45;41.48;103047.19;4962763;28;20042;-74
2022/01/26 07:24:19;;;;;;;19.52;8.35;;;;;;;18.44;41.43;103051.63;4960747;28;20390;-73
2022/01/26 07:26:46;;;;;;;18.60;8.88;;;;;;;18.43;41.50;103042.03;4954606;28;20046;-74
2022/01/26 07:29:13;;;;;;;17.58;8.80;;;;;;;18.39;41.36;103038.81;4975444;28;20478;-74
2022/01/26 07:31:42;;;;;;;18.17;8.55;;;;;;;18.40;41.37;103045.75;4979124;28;20046;-74
2022/01/26 07:34:13;;;;;;;16.35;8.15;;;;;;;18.38;41.57;103041.56;4972303;28;20070;-74
2022/01/26 07:36:39;;;;;;;19.17;8.32;;;;;;;18.35;41.51;103032.09;4968561;28;20034;-74
2022/01/26 07:39:08;;;;;;;19.58;8.13;;;;;;;18.36;41.50;103031.13;4973098;28;20610;-74
2022/01/26 07:41:34;;;;;;;23.63;9.70;;;;;;;18.33;41.45;103022.63;4969342;28;20484;-74
2022/01/26 07:44:00;;;;;;;20.55;9.02;;;;;;;18.32;41.64;103032.31;4958733;28;20027;-74
2022/01/26 07:46:27;;;;;;;18.95;8.73;;;;;;;18.31;41.49;103048.25;4973452;28;20077;-74
2022/01/26 07:48:53;;;;;;;19.98;8.50;;;;;;;18.28;41.69;103038.75;4955979;28;20131;-73
2022/01/26 07:51:19;;;;;;;18.73;8.38;;;;;;;18.25;41.33;103038.16;4975346;28;20034;-74
2022/01/26 07:53:46;;;;;;;22.00;9.15;;;;;;;18.23;41.49;103032.16;4957767;28;20657;-74
2022/01/26 07:56:11;;;;;;;19.35;8.65;;;;;;;18.23;41.62;103040.06;4976311;28;20046;-74
2022/01/26 07:58:37;;;;;;;21.08;8.57;;;;;;;18.23;41.41;103040.06;4960230;28;20034;-74
2022/01/26 08:01:03;;;;;;;20.52;8.88;;;;;;;18.26;41.52;103051.22;4956771;28;20117;-74
2022/01/26 08:03:33;;;;;;;17.33;8.35;;;;;;;18.31;41.30;103050.88;4968736;28;20034;-74
2022/01/26 08:06:03;;;;;;;18.98;7.93;;;;;;;18.40;41.33;103048.41;4972011;28;20042;-76
2022/01/26 08:08:29;;;;;;;;;;;;;;;18.41;41.19;103034.25;4978418;28;20035;-75
2022/01/26 08:10:58;;;;;;;21.02;8.68;;;;;;;18.39;41.19;103028.25;4960592;28;19925;-75
2022/01/26 08:13:24;;;;;;;18.65;8.52;;;;;;;18.52;41.08;103037.88;4974700;28;20125;-75
2022/01/26 08:15:50;;;;;;;19.98;8.70;;;;;;;18.49;41.04;103031.03;4977489;28;20121;-74
2022/01/26 08:18:16;;;;;;;19.95;8.73;;;;;;;18.52;40.99;103025.53;4978026;28;20040;-75
2022/01/26 08:20:41;;;;;;;20.27;9.25;;;;;;;18.53;41.14;103029.00;4976856;28;20503;-75
2022/01/26 08:23:07;;;;;;;19.13;8.55;;;;;;;18.48;41.11;103050.44;4977699;28;20038;-75
2022/01/26 08:25:33;;;;;;;20.67;8.48;;;;;;;18.45;41.22;103058.59;4976077;28;21477;-75
2022/01/26 08:30:47;;;;;;;21.00;9.00;;;;;;;18.45;41.23;103079.69;4951843;28;20054;-75
2022/01/26 08:33:13;;;;;;;20.17;8.70;;;;;;;18.39;41.25;103075.72;4977017;28;20708;-74
2022/01/26 08:35:39;;;;;;;15.65;7.90;;;;;;;18.41;41.33;103075.63;4976701;28;20404;-75
2022/01/26 08:38:04;;;;;;;21.20;9.23;;;;;;;18.36;41.31;103059.31;4958314;28;20496;-75
2022/01/26 08:40:33;;;;;;;23.50;9.20;;;;;;;18.37;41.34;103056.56;4983350;28;20406;-74
2022/01/26 08:42:59;;;;;;;20.83;9.98;;;;;;;18.35;41.26;103047.91;4979184;28;20057;-75
2022/01/26 08:45:24;;;;;;;18.35;8.45;;;;;;;18.34;41.39;103053.31;4977372;28;20341;-75
2022/01/26 08:47:50;;;;;;;21.08;8.45;;;;;;;18.32;41.36;103050.78;4978486;28;20037;-75
2022/01/26 08:50:16;;;;;;;20.75;9.43;;;;;;;18.31;41.47;103057.03;4978622;28;20046;-75
2022/01/26 08:52:42;;;;;;;21.33;9.05;;;;;;;18.30;41.39;103065.03;4976539;28;20040;-74
2022/01/26 08:55:08;;;;;;;22.33;8.52;;;;;;;18.29;41.34;103058.06;4961852;28;20118;-75
2022/01/26 08:57:33;;;;;;;18.75;9.00;;;;;;;18.34;41.19;103055.94;4959341;28;20540;-74
2022/01/26 08:59:59;;;;;;;25.42;10.00;;;;;;;18.40;41.07;103055.47;4957821;28;20039;-74
2022/01/26 09:02:25;;;;;;;20.20;10.25;;;;;;;18.44;41.17;103056.91;4955934;28;20057;-73
